createdAt,value
2018-05-25T00:01:04.584Z,99.90
2018-05-25T00:03:32.055Z,99.90
2018-05-25T00:06:00.299Z,99.90
2018-05-25T00:08:27.788Z,99.90
2018-05-25T00:10:56.028Z,99.90
2018-05-25T00:13:23.620Z,99.90
2018-05-25T00:15:51.860Z,99.90
2018-05-25T00:18:19.604Z,99.90
2018-05-25T00:20:47.112Z,99.90
2018-05-25T00:23:15.359Z,99.90
2018-05-25T00:25:42.857Z,99.90
2018-05-25T00:28:11.103Z,99.90
2018-05-25T00:30:38.827Z,99.90
2018-05-25T00:33:06.344Z,99.90
2018-05-25T00:35:34.867Z,99.90
2018-05-25T00:38:02.384Z,99.90
2018-05-25T00:40:30.640Z,99.90
2018-05-25T00:42:59.183Z,99.90
2018-05-25T00:45:26.703Z,99.90
2018-05-25T00:47:54.991Z,99.90
2018-05-25T00:50:23.268Z,99.90
2018-05-25T00:52:50.752Z,99.90
2018-05-25T00:55:30.129Z,99.90
2018-05-25T00:57:57.607Z,99.90
2018-05-25T01:00:26.239Z,99.90
2018-05-25T01:02:53.732Z,99.90
2018-05-25T01:05:22.712Z,99.90
2018-05-25T01:07:50.543Z,99.90
2018-05-25T01:10:18.020Z,99.90
2018-05-25T01:12:45.493Z,99.90
2018-05-25T01:15:14.732Z,99.90
2018-05-25T01:17:42.212Z,99.90
2018-05-25T01:20:10.202Z,99.90
2018-05-25T01:22:39.000Z,99.90
2018-05-25T01:25:06.472Z,99.90
2018-05-25T01:27:34.044Z,99.90
2018-05-25T01:30:02.567Z,99.90
2018-05-25T01:32:30.065Z,99.90
2018-05-25T01:34:57.536Z,99.90
2018-05-25T01:37:25.011Z,99.90
2018-05-25T01:39:53.271Z,99.90
2018-05-25T01:42:21.526Z,99.90
2018-05-25T01:44:49.076Z,99.90
2018-05-25T01:47:16.555Z,99.90
2018-05-25T01:49:44.032Z,99.90
2018-05-25T01:52:12.548Z,99.90
2018-05-25T01:54:40.029Z,99.90
2018-05-25T01:57:07.767Z,99.90
2018-05-25T01:59:35.247Z,99.90
2018-05-25T02:02:02.743Z,99.90
2018-05-25T02:04:30.999Z,99.90
2018-05-25T02:06:58.476Z,99.90
2018-05-25T02:09:26.735Z,99.90
2018-05-25T02:11:54.555Z,99.90
2018-05-25T02:14:22.256Z,99.90
2018-05-25T02:16:50.511Z,99.90
2018-05-25T02:19:17.991Z,99.90
2018-05-25T02:21:45.486Z,99.90
2018-05-25T02:24:13.025Z,99.90
2018-05-25T02:26:41.272Z,99.90
2018-05-25T02:29:08.768Z,99.90
2018-05-25T02:31:37.280Z,99.90
2018-05-25T02:34:04.774Z,99.90
2018-05-25T02:36:33.756Z,99.90
2018-05-25T02:39:01.500Z,99.90
2018-05-25T02:41:29.004Z,99.90
2018-05-25T02:43:56.479Z,99.90
2018-05-25T02:46:24.844Z,99.90
2018-05-25T02:48:53.083Z,99.90
2018-05-25T02:51:20.557Z,99.90
2018-05-25T02:53:48.812Z,99.90
2018-05-25T02:56:16.308Z,99.90
2018-05-25T02:58:44.831Z,99.90
2018-05-25T03:01:12.596Z,99.90
2018-05-25T03:03:40.116Z,99.90
2018-05-25T03:06:08.381Z,99.90
2018-05-25T03:08:35.952Z,99.90
2018-05-25T03:11:04.233Z,99.90
2018-05-25T03:13:32.488Z,99.90
2018-05-25T03:16:00.056Z,99.90
2018-05-25T03:18:28.317Z,99.90
2018-05-25T03:20:55.866Z,99.90
2018-05-25T03:23:23.448Z,99.90
2018-05-25T03:25:51.704Z,99.90
2018-05-25T03:28:19.176Z,99.90
2018-05-25T03:30:46.672Z,99.90
2018-05-25T03:33:14.155Z,99.90
2018-05-25T03:35:41.727Z,99.90
2018-05-25T03:38:09.211Z,99.90
2018-05-25T03:40:36.684Z,99.90
2018-05-25T03:43:05.195Z,99.90
2018-05-25T03:45:32.712Z,99.90
2018-05-25T03:48:00.988Z,99.90
2018-05-25T03:50:29.244Z,99.90
2018-05-25T03:52:56.772Z,99.90
2018-05-25T03:55:24.279Z,99.90
2018-05-25T03:57:52.519Z,99.90
2018-05-25T04:00:32.095Z,99.90
2018-05-25T04:03:00.340Z,99.90
2018-05-25T04:05:27.820Z,99.90
2018-05-25T04:07:55.384Z,99.90
2018-05-25T04:10:23.660Z,99.90
2018-05-25T04:12:51.923Z,99.90
2018-05-25T04:15:20.468Z,99.90
2018-05-25T04:17:47.944Z,99.90
2018-05-25T04:20:15.435Z,99.90
2018-05-25T04:22:43.745Z,99.90
2018-05-25T04:25:11.227Z,99.90
2018-05-25T04:27:38.725Z,99.90
2018-05-25T04:30:06.972Z,99.90
2018-05-25T04:32:34.474Z,99.90
2018-05-25T04:35:02.718Z,99.90
2018-05-25T04:37:30.980Z,99.90
2018-05-25T04:39:58.461Z,99.90
2018-05-25T04:42:25.938Z,99.90
2018-05-25T04:44:54.191Z,99.90
2018-05-25T04:47:21.672Z,99.90
2018-05-25T04:49:49.945Z,99.90
2018-05-25T04:52:18.456Z,99.90
2018-05-25T04:54:45.944Z,99.90
2018-05-25T04:57:13.658Z,99.90
2018-05-25T04:59:41.132Z,99.90
2018-05-25T05:02:08.647Z,99.90
2018-05-25T05:04:37.143Z,99.90
2018-05-25T05:07:05.656Z,99.90
2018-05-25T05:09:33.144Z,99.90
2018-05-25T05:12:00.620Z,99.90
2018-05-25T05:14:28.183Z,99.90
2018-05-25T05:16:56.423Z,99.90
2018-05-25T05:19:23.904Z,99.90
2018-05-25T05:21:51.775Z,99.90
2018-05-25T05:24:19.216Z,99.90
2018-05-25T05:26:46.948Z,99.90
2018-05-25T05:29:14.462Z,99.90
2018-05-25T05:31:42.713Z,99.90
2018-05-25T05:34:10.200Z,99.90
2018-05-25T05:36:38.467Z,99.90
2018-05-25T05:39:06.731Z,99.90
2018-05-25T05:41:34.451Z,99.90
2018-05-25T05:44:01.964Z,99.90
2018-05-25T05:46:30.220Z,99.90
2018-05-25T05:48:57.691Z,99.90
2018-05-25T05:51:25.256Z,99.90
2018-05-25T05:53:53.500Z,99.90
2018-05-25T05:56:20.974Z,99.90
2018-05-25T05:58:48.467Z,99.90
2018-05-25T06:01:15.942Z,99.90
2018-05-25T06:03:43.712Z,99.90
2018-05-25T06:06:11.183Z,99.90
2018-05-25T06:08:38.680Z,99.90
2018-05-25T06:11:06.940Z,99.90
2018-05-25T06:13:35.180Z,99.90
2018-05-25T06:16:02.676Z,99.90
2018-05-25T06:18:30.156Z,99.90
2018-05-25T06:20:58.530Z,99.90
2018-05-25T06:23:26.773Z,99.90
2018-05-25T06:25:54.419Z,99.90
2018-05-25T06:28:22.003Z,99.90
2018-05-25T06:30:49.584Z,99.90
2018-05-25T06:33:18.073Z,99.90
2018-05-25T06:35:46.588Z,99.90
2018-05-25T06:38:14.064Z,99.90
2018-05-25T06:40:41.555Z,99.90
2018-05-25T06:43:09.030Z,99.90
2018-05-25T06:45:36.576Z,99.90
2018-05-25T06:48:05.100Z,99.90
2018-05-25T06:50:32.580Z,99.90
2018-05-25T06:53:00.071Z,99.90
2018-05-25T06:55:28.595Z,99.90
2018-05-25T06:57:56.167Z,99.90
2018-05-25T07:00:24.352Z,99.90
2018-05-25T07:02:51.839Z,99.90
2018-05-25T07:05:20.096Z,99.90
2018-05-25T07:07:47.572Z,99.90
2018-05-25T07:10:15.385Z,99.90
2018-05-25T07:12:42.864Z,99.90
2018-05-25T07:15:10.358Z,99.90
2018-05-25T07:17:38.599Z,99.90
2018-05-25T07:20:06.076Z,99.90
2018-05-25T07:22:33.564Z,99.90
2018-05-25T07:25:01.352Z,99.90
2018-05-25T07:27:28.847Z,99.90
2018-05-25T07:29:58.052Z,99.90
2018-05-25T07:32:25.627Z,99.90
2018-05-25T07:34:53.879Z,99.90
2018-05-25T07:37:22.176Z,99.90
2018-05-25T07:39:50.435Z,99.90
2018-05-25T07:42:17.907Z,99.90
2018-05-25T07:44:46.164Z,99.90
2018-05-25T07:47:13.891Z,99.90
2018-05-25T07:49:41.370Z,99.90
2018-05-25T07:52:09.111Z,99.90
2018-05-25T07:54:36.876Z,99.90
2018-05-25T07:57:04.373Z,99.90
2018-05-25T07:59:32.668Z,99.90
2018-05-25T08:02:00.908Z,99.90
2018-05-25T08:04:28.395Z,99.90
2018-05-25T08:06:56.642Z,99.90
2018-05-25T08:09:24.139Z,99.90
2018-05-25T08:11:52.659Z,99.90
2018-05-25T08:14:20.143Z,99.90
2018-05-25T08:16:47.633Z,99.90
2018-05-25T08:19:16.457Z,99.90
2018-05-25T08:21:44.000Z,99.90
2018-05-25T08:24:11.533Z,99.90
2018-05-25T08:26:39.778Z,99.90
2018-05-25T08:29:07.370Z,99.90
2018-05-25T08:31:35.639Z,99.90
2018-05-25T08:34:03.133Z,99.90
2018-05-25T08:36:30.616Z,99.90
2018-05-25T08:38:58.124Z,99.90
2018-05-25T08:41:26.395Z,99.90
2018-05-25T08:43:54.644Z,99.90
2018-05-25T08:46:22.941Z,99.90
2018-05-25T08:48:50.756Z,99.90
2018-05-25T08:51:18.274Z,99.90
2018-05-25T08:53:46.528Z,99.90
2018-05-25T08:56:14.044Z,99.90
2018-05-25T08:58:41.541Z,99.90
2018-05-25T09:01:09.016Z,99.90
2018-05-25T09:03:37.255Z,99.90
2018-05-25T09:06:04.852Z,99.90
2018-05-25T09:08:33.517Z,98.90
2018-05-25T09:11:02.627Z,99.90
2018-05-25T09:13:31.156Z,99.90
2018-05-25T09:15:58.668Z,99.90
2018-05-25T09:18:26.923Z,99.90
2018-05-25T09:20:55.163Z,99.90
2018-05-25T09:23:22.660Z,99.90
2018-05-25T09:25:50.136Z,99.90
2018-05-25T09:28:18.379Z,99.90
2018-05-25T09:30:45.929Z,99.90
2018-05-25T09:33:13.368Z,97.60
2018-05-25T09:35:41.195Z,97.20
2018-05-25T09:38:09.713Z,95.00
2018-05-25T09:40:37.277Z,95.20
2018-05-25T09:43:04.774Z,97.30
2018-05-25T09:45:32.595Z,98.30
2018-05-25T09:48:00.096Z,99.40
2018-05-25T09:50:27.572Z,99.20
2018-05-25T09:52:55.816Z,97.80
2018-05-25T09:55:23.308Z,97.70
2018-05-25T09:57:57.412Z,99.60
2018-05-25T10:00:25.681Z,94.20
2018-05-25T10:02:53.167Z,93.80
2018-05-25T10:05:20.650Z,94.50
2018-05-25T10:07:48.168Z,94.90
2018-05-25T10:10:16.579Z,92.80
2018-05-25T10:12:44.120Z,92.50
2018-05-25T10:15:11.660Z,93.40
2018-05-25T10:17:40.218Z,93.00
2018-05-25T10:20:07.679Z,93.20
2018-05-25T10:22:35.404Z,91.50
2018-05-25T10:25:02.900Z,90.90
2018-05-25T10:27:31.399Z,90.60
2018-05-25T10:29:59.919Z,89.60
2018-05-25T10:32:27.415Z,89.30
2018-05-25T10:34:55.655Z,87.60
2018-05-25T10:37:23.151Z,86.90
2018-05-25T10:39:50.623Z,81.00
2018-05-25T10:42:18.867Z,78.20
2018-05-25T10:44:46.368Z,78.20
2018-05-25T10:47:14.637Z,80.10
2018-05-25T10:49:42.911Z,83.30
2018-05-25T10:52:11.436Z,83.20
2018-05-25T10:54:39.200Z,83.20
2018-05-25T10:57:06.687Z,80.80
2018-05-25T10:59:34.268Z,79.70
2018-05-25T11:02:02.524Z,77.20
2018-05-25T11:04:30.256Z,77.20
2018-05-25T11:06:57.756Z,75.40
2018-05-25T11:09:25.252Z,73.90
2018-05-25T11:11:52.783Z,78.30
2018-05-25T11:14:21.036Z,82.60
2018-05-25T11:16:48.508Z,78.70
2018-05-25T11:19:16.004Z,78.80
2018-05-25T11:21:43.479Z,77.40
2018-05-25T11:24:10.952Z,78.80
2018-05-25T11:26:38.549Z,79.90
2018-05-25T11:29:06.787Z,79.10
2018-05-25T11:31:34.279Z,79.10
2018-05-25T11:34:02.804Z,79.90
2018-05-25T11:36:30.280Z,80.20
2018-05-25T11:38:58.440Z,80.50
2018-05-25T11:41:25.948Z,79.20
2018-05-25T11:43:54.211Z,80.80
2018-05-25T11:46:21.688Z,80.90
2018-05-25T11:48:49.932Z,81.30
2018-05-25T11:51:17.515Z,82.00
2018-05-25T11:53:45.754Z,82.00
2018-05-25T11:56:13.247Z,80.80
2018-05-25T11:58:41.487Z,77.30
2018-05-25T12:01:09.231Z,76.10
2018-05-25T12:03:36.744Z,76.60
2018-05-25T12:06:04.991Z,80.70
2018-05-25T12:08:32.480Z,77.40
2018-05-25T12:11:00.939Z,77.00
2018-05-25T12:13:28.436Z,77.00
2018-05-25T12:15:55.976Z,80.90
2018-05-25T12:18:24.220Z,80.70
2018-05-25T12:20:51.713Z,80.60
2018-05-25T12:23:19.956Z,76.60
2018-05-25T12:25:47.547Z,76.70
2018-05-25T12:28:15.793Z,75.50
2018-05-25T12:30:44.091Z,71.80
2018-05-25T12:33:12.337Z,74.50
2018-05-25T12:35:39.813Z,80.50
2018-05-25T12:38:08.817Z,74.00
2018-05-25T12:40:37.096Z,72.30
2018-05-25T12:43:05.408Z,74.00
2018-05-25T12:45:33.617Z,72.50
2018-05-25T12:48:01.096Z,72.10
2018-05-25T12:50:28.663Z,70.00
2018-05-25T12:52:56.908Z,70.10
2018-05-25T12:55:24.405Z,70.10
2018-05-25T12:57:52.657Z,70.10
2018-05-25T13:00:20.132Z,70.00
2018-05-25T13:02:48.400Z,69.30
2018-05-25T13:05:16.677Z,69.80
2018-05-25T13:07:44.946Z,72.70
2018-05-25T13:10:13.202Z,71.10
2018-05-25T13:12:41.448Z,71.50
2018-05-25T13:15:08.936Z,71.70
2018-05-25T13:17:36.420Z,73.50
2018-05-25T13:20:04.697Z,74.10
2018-05-25T13:22:32.967Z,73.90
2018-05-25T13:25:01.238Z,73.80
2018-05-25T13:27:28.716Z,73.70
2018-05-25T13:29:56.200Z,72.90
2018-05-25T13:32:23.696Z,74.60
2018-05-25T13:34:51.194Z,73.90
2018-05-25T13:37:18.683Z,75.10
2018-05-25T13:39:46.160Z,77.70
2018-05-25T13:42:13.649Z,78.70
2018-05-25T13:44:41.928Z,79.30
2018-05-25T13:47:10.188Z,78.90
2018-05-25T13:49:37.669Z,78.80
2018-05-25T13:52:05.908Z,78.30
2018-05-25T13:54:33.492Z,78.20
2018-05-25T13:57:01.736Z,78.60
2018-05-25T13:59:29.475Z,78.50
2018-05-25T14:01:56.956Z,79.20
2018-05-25T14:04:24.504Z,81.10
2018-05-25T14:06:51.979Z,77.20
2018-05-25T14:09:19.455Z,76.00
2018-05-25T14:11:47.770Z,79.60
2018-05-25T14:14:15.991Z,78.70
2018-05-25T14:16:43.464Z,78.80
2018-05-25T14:19:10.956Z,78.00
2018-05-25T14:21:38.440Z,78.30
2018-05-25T14:24:06.001Z,78.10
2018-05-25T14:26:33.753Z,78.10
2018-05-25T14:29:01.271Z,79.00
2018-05-25T14:31:29.554Z,76.60
2018-05-25T14:33:57.033Z,76.50
2018-05-25T14:36:24.524Z,77.20
2018-05-25T14:38:51.996Z,78.90
2018-05-25T14:41:19.551Z,77.60
2018-05-25T14:43:46.991Z,76.40
2018-05-25T14:46:14.467Z,79.90
2018-05-25T14:48:42.295Z,80.30
2018-05-25T14:51:09.775Z,80.50
2018-05-25T14:53:37.271Z,79.30
2018-05-25T14:56:05.512Z,80.60
2018-05-25T14:58:32.995Z,80.60
2018-05-25T15:01:01.257Z,76.90
2018-05-25T15:03:29.175Z,76.90
2018-05-25T15:05:57.047Z,77.60
2018-05-25T15:08:24.595Z,79.30
2018-05-25T15:10:52.072Z,82.20
2018-05-25T15:13:19.618Z,83.10
2018-05-25T15:15:47.107Z,85.10
2018-05-25T15:18:14.700Z,84.30
2018-05-25T15:20:43.220Z,85.30
2018-05-25T15:23:10.984Z,85.20
2018-05-25T15:25:38.749Z,85.00
2018-05-25T15:28:06.224Z,86.30
2018-05-25T15:30:33.712Z,86.30
2018-05-25T15:33:01.188Z,87.00
2018-05-25T15:35:29.450Z,89.40
2018-05-25T15:37:57.707Z,89.80
2018-05-25T15:40:25.286Z,89.70
2018-05-25T15:42:53.540Z,90.60
2018-05-25T15:45:21.016Z,90.60
2018-05-25T15:47:49.276Z,91.60
2018-05-25T15:50:16.752Z,89.80
2018-05-25T15:52:45.011Z,86.40
2018-05-25T15:55:12.487Z,86.30
2018-05-25T15:57:40.770Z,88.40
2018-05-25T16:00:09.284Z,86.80
2018-05-25T16:02:37.049Z,86.80
2018-05-25T16:05:04.550Z,85.10
2018-05-25T16:07:32.028Z,87.70
2018-05-25T16:10:00.284Z,89.60
2018-05-25T16:12:28.568Z,88.00
2018-05-25T16:14:56.820Z,88.50
2018-05-25T16:17:24.411Z,88.60
2018-05-25T16:19:52.651Z,91.00
2018-05-25T16:22:20.147Z,88.60
2018-05-25T16:24:48.416Z,85.90
2018-05-25T16:27:17.107Z,88.70
2018-05-25T16:29:44.664Z,88.70
2018-05-25T16:32:12.904Z,91.00
2018-05-25T16:34:40.402Z,91.00
2018-05-25T16:37:08.651Z,92.60
2018-05-25T16:39:36.226Z,92.50
2018-05-25T16:42:04.541Z,93.60
2018-05-25T16:44:32.016Z,93.60
2018-05-25T16:46:59.769Z,94.70
2018-05-25T16:49:27.288Z,95.10
2018-05-25T16:51:55.556Z,95.30
2018-05-25T16:54:24.084Z,95.70
2018-05-25T16:56:51.571Z,95.70
2018-05-25T16:59:19.230Z,95.20
2018-05-25T17:01:46.716Z,95.20
2018-05-25T17:04:14.960Z,95.40
2018-05-25T17:06:42.455Z,95.40
2018-05-25T17:09:10.976Z,96.30
2018-05-25T17:11:38.494Z,96.30
2018-05-25T17:14:06.752Z,95.30
2018-05-25T17:16:35.012Z,96.20
2018-05-25T17:19:02.567Z,96.10
2018-05-25T17:21:30.831Z,95.90
2018-05-25T17:23:58.325Z,95.90
2018-05-25T17:26:25.804Z,97.10
2018-05-25T17:28:53.600Z,97.30
2018-05-25T17:31:21.089Z,97.80
2018-05-25T17:33:48.567Z,97.80
2018-05-25T17:36:16.828Z,97.80
2018-05-25T17:38:44.303Z,97.80
2018-05-25T17:41:12.823Z,98.10
2018-05-25T17:43:40.336Z,98.10
2018-05-25T17:46:08.800Z,99.30
2018-05-25T17:48:36.435Z,99.30
2018-05-25T17:51:03.940Z,98.20
2018-05-25T17:53:32.219Z,99.10
2018-05-25T17:56:00.489Z,98.60
2018-05-25T17:58:28.732Z,98.50
2018-05-25T18:00:56.235Z,98.50
2018-05-25T18:03:24.590Z,99.40
2018-05-25T18:05:52.075Z,99.40
2018-05-25T18:08:19.629Z,99.30
2018-05-25T18:10:47.868Z,99.90
2018-05-25T18:13:15.364Z,99.90
2018-05-25T18:15:43.604Z,99.90
2018-05-25T18:18:11.084Z,99.90
2018-05-25T18:20:39.344Z,99.90
2018-05-25T18:23:07.641Z,99.90
2018-05-25T18:25:35.900Z,99.90
2018-05-25T18:28:03.464Z,99.90
2018-05-25T18:30:31.748Z,99.90
2018-05-25T18:33:00.007Z,99.90
2018-05-25T18:35:27.488Z,99.90
2018-05-25T18:37:55.279Z,99.90
2018-05-25T18:40:22.797Z,99.90
2018-05-25T18:42:51.043Z,99.90
2018-05-25T18:45:18.536Z,99.90
2018-05-25T18:47:46.781Z,99.90
2018-05-25T18:50:14.275Z,99.90
2018-05-25T18:52:41.764Z,99.90
2018-05-25T18:55:09.246Z,99.90
2018-05-25T18:57:36.740Z,99.90
2018-05-25T19:00:04.995Z,99.90
2018-05-25T19:02:32.492Z,99.90
2018-05-25T19:04:59.968Z,99.90
2018-05-25T19:07:27.448Z,99.90
2018-05-25T19:09:55.042Z,99.90
2018-05-25T19:12:23.337Z,99.90
2018-05-25T19:14:50.884Z,99.90
2018-05-25T19:17:19.126Z,99.90
2018-05-25T19:19:46.603Z,99.90
2018-05-25T19:22:14.091Z,99.90
2018-05-25T19:24:41.872Z,99.90
2018-05-25T19:27:11.103Z,99.90
2018-05-25T19:29:38.610Z,99.90
2018-05-25T19:32:06.097Z,99.90
2018-05-25T19:34:33.620Z,99.90
2018-05-25T19:37:01.164Z,99.90
2018-05-25T19:39:29.432Z,99.90
2018-05-25T19:41:56.903Z,99.90
2018-05-25T19:44:26.024Z,99.90
2018-05-25T19:46:53.547Z,99.90
2018-05-25T19:49:21.800Z,99.90
2018-05-25T19:51:49.312Z,99.90
2018-05-25T19:54:16.792Z,99.90
2018-05-25T19:56:44.544Z,99.90
2018-05-25T19:59:12.035Z,99.90
2018-05-25T20:01:39.519Z,99.90
2018-05-25T20:04:07.025Z,99.90
2018-05-25T20:06:34.526Z,99.90
2018-05-25T20:09:03.056Z,99.90
2018-05-25T20:11:30.535Z,99.90
2018-05-25T20:13:58.025Z,99.90
2018-05-25T20:16:26.303Z,99.90
2018-05-25T20:18:54.560Z,99.90
2018-05-25T20:21:22.041Z,99.90
2018-05-25T20:23:50.455Z,99.90
2018-05-25T20:26:17.944Z,99.90
2018-05-25T20:28:45.440Z,99.90
2018-05-25T20:31:13.744Z,99.90
2018-05-25T20:33:41.256Z,99.90
2018-05-25T20:36:08.820Z,99.90
2018-05-25T20:38:37.303Z,99.90
2018-05-25T20:41:05.550Z,99.90
2018-05-25T20:43:33.939Z,99.90
2018-05-25T20:46:01.428Z,99.90
2018-05-25T20:48:29.936Z,99.90
2018-05-25T20:50:57.701Z,99.90
2018-05-25T20:53:25.464Z,99.90
2018-05-25T20:55:52.971Z,99.90
2018-05-25T20:58:20.509Z,99.90
2018-05-25T21:00:47.990Z,99.90
2018-05-25T21:03:15.513Z,99.90
2018-05-25T21:05:43.258Z,99.90
2018-05-25T21:08:11.028Z,99.90
2018-05-25T21:10:38.508Z,99.90
2018-05-25T21:13:06.244Z,99.90
2018-05-25T21:15:33.740Z,99.90
2018-05-25T21:18:01.320Z,99.90
2018-05-25T21:20:29.579Z,99.90
2018-05-25T21:22:57.052Z,99.90
2018-05-25T21:25:25.324Z,99.90
2018-05-25T21:27:53.584Z,99.90
2018-05-25T21:30:21.060Z,99.90
2018-05-25T21:32:49.435Z,99.90
2018-05-25T21:35:17.723Z,99.90
2018-05-25T21:37:45.272Z,99.90
2018-05-25T21:40:13.608Z,99.90
2018-05-25T21:42:41.398Z,99.90
2018-05-25T21:45:08.907Z,99.90
2018-05-25T21:47:36.384Z,99.90
2018-05-25T21:50:03.883Z,99.90
2018-05-25T21:52:32.160Z,99.90
2018-05-25T21:55:00.404Z,99.90
2018-05-25T21:57:27.901Z,99.90
2018-05-25T21:59:56.143Z,99.90
2018-05-25T22:02:23.620Z,99.90
2018-05-25T22:04:51.884Z,99.90
2018-05-25T22:07:20.130Z,99.90
2018-05-25T22:09:47.671Z,99.90
2018-05-25T22:12:15.443Z,99.90
2018-05-25T22:14:42.937Z,99.90
2018-05-25T22:17:10.407Z,99.90
2018-05-25T22:19:38.119Z,99.90
2018-05-25T22:22:05.644Z,99.90
2018-05-25T22:24:33.884Z,99.90
2018-05-25T22:27:01.379Z,99.90
2018-05-25T22:29:29.619Z,99.90
2018-05-25T22:31:57.095Z,99.90
2018-05-25T22:34:26.087Z,99.90
2018-05-25T22:36:53.796Z,99.90
2018-05-25T22:39:21.292Z,99.90
2018-05-25T22:41:56.231Z,99.90
2018-05-25T22:44:35.681Z,99.90
2018-05-25T22:47:15.980Z,99.90
2018-05-25T22:49:55.484Z,99.90
2018-05-25T22:52:28.852Z,99.90
2018-05-25T22:54:57.284Z,99.90
2018-05-25T22:57:25.061Z,99.90
2018-05-25T22:59:52.540Z,99.90
2018-05-25T23:02:20.035Z,99.90
2018-05-25T23:04:48.584Z,99.90
2018-05-25T23:07:16.076Z,99.90
2018-05-25T23:09:44.356Z,99.90
2018-05-25T23:12:12.591Z,99.90
2018-05-25T23:14:40.079Z,99.90
2018-05-25T23:17:08.328Z,99.90
2018-05-25T23:19:35.825Z,99.90
2018-05-25T23:22:04.064Z,99.90
2018-05-25T23:24:31.541Z,99.90
2018-05-25T23:26:59.804Z,99.90
2018-05-25T23:29:27.528Z,99.90
2018-05-25T23:31:55.023Z,99.90
2018-05-25T23:34:22.502Z,99.90
2018-05-25T23:36:50.773Z,99.90
2018-05-25T23:39:19.028Z,99.90
2018-05-25T23:41:46.755Z,99.90
2018-05-25T23:44:14.267Z,99.90
2018-05-25T23:46:42.509Z,99.90
2018-05-25T23:49:09.985Z,99.90
2018-05-25T23:51:37.807Z,99.90
2018-05-25T23:54:05.280Z,99.90
2018-05-25T23:56:32.884Z,99.90
2018-05-25T23:59:01.124Z,99.90
